Pagrindinis puslapis
METAR-TAF:

METAR-TAF

Oro uostai :

Karlstadas, Švedija

platuma: 59-26-41N, ilguma: 013-20-15E, Aukštis: 107 m

Dabartinis oras

Ataskaita buvo paskelbta 31 minutes, ne 10:20 UTC
Vėjas 10 kt iš Vakarų/Pietvakarių
Temperatūra 13°C
Drėgmė 94%
Slėgis 1001 hPa
Matomumas 10 km arba daugiau
Su prošvaistėmis ne aukštis 1200 ft

METAR: ESOK 271020Z 24010KT 9999 BKN012 13/12 Q1001

Laikas: 12:51 (10:51 UTC)

Prognozė

Ataskaita buvo paskelbta 2 valandos ir 21 minutes, ne 08:30 UTC
Prognozė galioja nuo 27 metu 09 UTC su 27 metu 15 UTC
Vėjas 10 kt iš Pietvakarių
Matomumas 10 km arba daugiau
Apsiniaukę ne aukštis 400 ft
Tapsmas
nuo 27 metu 09 UTC su 27 metu 11 UTC
Išsisklaidę debesys ne aukštis 1500 ft

TAF: ESOK 270830Z 2709/2715 22010KT 9999 OVC004 BECMG 2709/2711 SCT015

Orai ataskaitas ir orų prognozės (METAR, TAF).

turimą stotys yra geltonos ir raudonos taškus žemėlapyje.

Perkelti pele per norėdami pamatyti stoties vardą.

Tada spustelėkite, norėdami matyti oro stebėjimo ir prognozės.

Norėdami pakeisti žemėlapį: spustelėkite ant žalios mygtukų su juodo kryžiaus žemyn,; žalią mygtuką su brūkšneliu, jei norite nutolinti; arba žalių rodyklių gretimoms žemėlapius.


METAR-TAF: